Terminal Aerodrome Forecast
Issued by NWS

Home | Current Version | Previous Version | Text Only | Print | Product List | Glossary Off
Versions: 1 2 3 4 5 6 7 8 9 10 11 12 13 14

000
FTUS43 KICT 252324
TAFHUT
TAF
KHUT 252324Z 2600/2624 15006KT P6SM SKC
     FM261400 16008KT P6SM BKN035
     FM261800 17011KT P6SM SCT050=

USA.gov is the U.S. government's official web portal to all federal, state and local government web resources and services.